This is the latest recevied weather packets stored in our database for station/object YB2YEN-13. If no packets are shown the sender has not sent any weather packets the latest 1 day(s).
| Time | Temp. | Humidity | Pressure | Rain* | Wind** | Luminosity | Snow |
|---|---|---|---|---|---|---|---|
| 1778070020 | 27.78° C | 99% | 977 hPa | - | - | 0 W/m² | - |
| 1778069376 | 27.78° C | 99% | 977 hPa | - | - | 0 W/m² | - |
| 1778065834 | 28.33° C | 99% | 976 hPa | - | - | 0 W/m² | - |
| 1778065512 | 28.33° C | 99% | 976 hPa | - | - | 0 W/m² | - |
| 1778065190 | 28.89° C | 99% | 976 hPa | - | - | 0 W/m² | - |
| 1778064224 | 28.89° C | 99% | 976 hPa | - | - | 0 W/m² | - |
| 1778062935 | 29.44° C | 99% | 976 hPa | - | - | 0 W/m² | - |
| 1778062613 | 29.44° C | 99% | 976 hPa | - | - | 0 W/m² | - |
| 1778062291 | 30° C | 99% | 976 hPa | - | - | 0 W/m² | - |
| 1778061969 | 30° C | 99% | 976 hPa | - | - | 0 W/m² | - |
| 1778061325 | 30° C | 98% | 975 hPa | - | - | 0 W/m² | - |
| 1778060681 | 30.56° C | 97% | 975 hPa | - | - | 0 W/m² | - |
| 1778059715 | 30.56° C | 93% | 975 hPa | - | - | 0 W/m² | - |
| 1778059393 | 30.56° C | 91% | 975 hPa | - | - | 0 W/m² | - |
| 1778059071 | 31.67° C | 87% | 975 hPa | - | - | 0 W/m² | - |
| 1778058749 | 31.67° C | 86% | 975 hPa | - | - | 0 W/m² | - |
| 1778058105 | 33.33° C | 82% | 975 hPa | - | - | 0 W/m² | - |
| 1778057783 | 32.78° C | 81% | 975 hPa | - | - | 0 W/m² | - |
| 1778057461 | 33.33° C | 79% | 975 hPa | - | - | 0 W/m² | - |
| 1778057139 | 32.78° C | 78% | 975 hPa | - | - | 0 W/m² | - |
| 1778056817 | 33.89° C | 67% | 975 hPa | - | - | 0 W/m² | - |
| 1778056495 | 32.78° C | 68% | 975 hPa | - | - | 0 W/m² | - |
| 1778056173 | 32.78° C | 62% | 975 hPa | - | - | 0 W/m² | - |
| 1778055851 | 32.78° C | 64% | 975 hPa | - | - | 0 W/m² | - |
| 1778055206 | 33.89° C | 60% | 975 hPa | - | - | 0 W/m² | - |
* Rain since midnight (hover to see other rain measurements)
** Current wind speed in m/s (hover to see current wind gust speed)